createdAt,value
2023-02-23T00:02:06.080Z,26.50
2023-02-23T00:04:35.088Z,28.20
2023-02-23T00:07:01.947Z,29.52
2023-02-23T00:09:35.265Z,28.75
2023-02-23T00:12:08.149Z,27.85
2023-02-23T00:14:37.720Z,30.17
2023-02-23T00:17:14.168Z,34.13
2023-02-23T00:19:43.452Z,28.88
2023-02-23T00:24:38.806Z,31.77
2023-02-23T00:27:06.558Z,30.13
2023-02-23T00:29:39.458Z,34.78
2023-02-23T00:32:06.921Z,30.45
2023-02-23T00:34:37.083Z,33.67
2023-02-23T00:37:04.594Z,32.70
2023-02-23T00:39:31.489Z,31.42
2023-02-23T00:42:03.332Z,28.63
2023-02-23T00:44:33.749Z,28.23
2023-02-23T00:47:01.822Z,32.13
2023-02-23T00:49:28.943Z,33.00
2023-02-23T00:51:55.870Z,34.75
2023-02-23T00:54:23.040Z,35.22
2023-02-23T00:56:51.081Z,33.92
2023-02-23T00:59:19.215Z,39.25
2023-02-23T01:01:46.747Z,45.90
2023-02-23T01:04:14.453Z,46.30
2023-02-23T01:06:42.620Z,49.00
2023-02-23T01:09:13.880Z,46.40
2023-02-23T01:11:41.567Z,44.85
2023-02-23T01:14:10.998Z,47.65
2023-02-23T01:16:38.917Z,53.20
2023-02-23T01:19:06.594Z,60.60
2023-02-23T01:21:42.158Z,56.47
2023-02-23T01:24:10.586Z,62.83
2023-02-23T01:26:41.734Z,62.08
2023-02-23T01:29:12.925Z,66.85
2023-02-23T01:31:43.999Z,62.28
2023-02-23T01:34:13.191Z,67.50
2023-02-23T01:36:42.778Z,68.75
2023-02-23T01:39:15.790Z,63.72
2023-02-23T01:41:43.048Z,63.65
2023-02-23T01:44:12.604Z,64.88
2023-02-23T01:46:46.025Z,64.28
2023-02-23T01:49:23.463Z,61.08
2023-02-23T01:51:59.416Z,69.95
2023-02-23T01:54:39.958Z,70.35
2023-02-23T01:57:12.257Z,72.13
2023-02-23T01:59:46.185Z,64.93
2023-02-23T02:02:14.393Z,65.28
2023-02-23T02:04:46.232Z,67.32
2023-02-23T02:07:29.069Z,55.75
2023-02-23T02:10:11.568Z,73.93
2023-02-23T02:12:54.098Z,70.97
2023-02-23T02:15:26.034Z,64.25
2023-02-23T02:18:38.213Z,61.72
2023-02-23T02:21:31.512Z,56.50
2023-02-23T02:24:32.532Z,62.28
2023-02-23T02:27:34.180Z,60.13
2023-02-23T02:30:39.379Z,63.78
2023-02-23T02:33:53.588Z,63.53
2023-02-23T02:37:00.566Z,63.67
2023-02-23T02:39:44.813Z,61.33
2023-02-23T02:42:39.871Z,65.05
2023-02-23T02:45:22.213Z,60.20
2023-02-23T02:48:36.489Z,70.25
2023-02-23T02:51:12.150Z,63.97
2023-02-23T02:53:51.835Z,68.70
2023-02-23T02:56:25.320Z,57.30
2023-02-23T02:58:54.142Z,62.70
2023-02-23T03:01:39.761Z,70.60
2023-02-23T03:04:43.975Z,72.30
2023-02-23T03:07:49.137Z,67.05
2023-02-23T03:11:00.530Z,62.75
2023-02-23T03:13:55.221Z,62.60
2023-02-23T03:17:13.699Z,70.55
2023-02-23T03:20:16.990Z,61.67
2023-02-23T03:23:15.797Z,70.93
2023-02-23T03:26:22.193Z,73.18
2023-02-23T03:29:47.620Z,74.18
2023-02-23T03:32:50.396Z,68.95
2023-02-23T03:35:48.934Z,74.63
2023-02-23T03:38:55.094Z,63.78
2023-02-23T03:41:45.247Z,61.22
2023-02-23T03:44:41.596Z,55.83
2023-02-23T03:47:30.979Z,64.35
2023-02-23T03:50:21.561Z,62.53
2023-02-23T03:53:16.932Z,68.70
2023-02-23T03:56:10.576Z,71.65
2023-02-23T03:59:05.343Z,65.40
2023-02-23T04:01:51.913Z,72.47
2023-02-23T04:04:38.950Z,72.88
2023-02-23T04:07:27.370Z,78.68
2023-02-23T04:10:12.674Z,83.13
2023-02-23T04:13:16.619Z,84.03
2023-02-23T04:15:54.280Z,73.85
2023-02-23T04:18:28.602Z,79.68
2023-02-23T04:20:58.197Z,68.70
2023-02-23T04:23:27.121Z,70.93
2023-02-23T04:25:55.151Z,83.43
2023-02-23T04:28:24.214Z,71.25
2023-02-23T04:30:52.800Z,75.40
2023-02-23T04:33:22.080Z,69.85
2023-02-23T04:35:49.252Z,77.38
2023-02-23T04:38:16.164Z,87.85
2023-02-23T04:40:43.143Z,90.22
2023-02-23T04:43:13.336Z,81.40
2023-02-23T04:45:40.699Z,79.68
2023-02-23T04:48:08.326Z,85.10
2023-02-23T04:50:35.254Z,82.72
2023-02-23T04:53:02.340Z,83.90
2023-02-23T04:55:29.268Z,78.03
2023-02-23T04:58:01.170Z,86.60
2023-02-23T05:00:29.457Z,88.80
2023-02-23T05:02:57.770Z,87.50
2023-02-23T05:05:25.109Z,96.53
2023-02-23T05:07:52.984Z,81.78
2023-02-23T05:10:19.969Z,85.28
2023-02-23T05:12:47.008Z,84.25
2023-02-23T05:15:13.943Z,86.25
2023-02-23T05:17:42.047Z,91.10
2023-02-23T05:20:13.943Z,86.03
2023-02-23T05:22:41.335Z,87.30
2023-02-23T05:25:10.124Z,90.55
2023-02-23T05:27:37.309Z,91.90
2023-02-23T05:30:07.857Z,76.50
2023-02-23T05:32:34.945Z,90.25
2023-02-23T05:35:02.629Z,88.65
2023-02-23T05:37:30.428Z,91.15
2023-02-23T05:39:57.318Z,90.95
2023-02-23T05:42:24.301Z,95.63
2023-02-23T05:44:51.196Z,96.53
2023-02-23T05:47:18.206Z,93.25
2023-02-23T05:49:46.212Z,96.78
2023-02-23T05:52:13.138Z,109.75
2023-02-23T05:54:40.294Z,94.43
2023-02-23T05:57:08.306Z,92.47
2023-02-23T05:59:35.308Z,94.43
2023-02-23T06:02:04.807Z,95.57
2023-02-23T06:04:32.993Z,97.97
2023-02-23T06:07:00.051Z,101.82
2023-02-23T06:09:27.117Z,98.55
2023-02-23T06:11:54.134Z,101.78
2023-02-23T06:14:21.194Z,97.15
2023-02-23T06:16:48.839Z,86.05
2023-02-23T06:19:15.904Z,96.97
2023-02-23T06:21:42.825Z,87.38
2023-02-23T06:24:10.322Z,98.90
2023-02-23T06:26:37.279Z,95.00
2023-02-23T06:29:04.182Z,101.18
2023-02-23T06:31:31.127Z,97.88
2023-02-23T06:33:58.192Z,96.88
2023-02-23T06:36:25.130Z,99.70
2023-02-23T06:38:55.429Z,99.80
2023-02-23T06:41:22.342Z,90.10
2023-02-23T06:43:49.208Z,105.45
2023-02-23T06:46:16.435Z,97.65
2023-02-23T06:48:43.607Z,98.43
2023-02-23T06:51:10.510Z,93.40
2023-02-23T06:53:37.463Z,100.20
2023-02-23T06:56:05.026Z,104.38
2023-02-23T06:58:32.191Z,104.90
2023-02-23T07:00:59.477Z,98.15
2023-02-23T07:03:26.707Z,110.05
2023-02-23T07:05:54.340Z,104.38
2023-02-23T07:08:21.244Z,101.43
2023-02-23T07:10:48.411Z,105.82
2023-02-23T07:13:15.305Z,102.82
2023-02-23T07:15:42.712Z,94.45
2023-02-23T07:18:09.793Z,104.93
2023-02-23T07:20:36.732Z,98.85
2023-02-23T07:23:03.747Z,98.65
2023-02-23T07:25:31.352Z,103.80
2023-02-23T07:27:59.102Z,83.97
2023-02-23T07:30:26.358Z,98.75
2023-02-23T07:32:54.163Z,85.45
2023-02-23T07:35:21.352Z,89.63
2023-02-23T07:37:48.497Z,94.25
2023-02-23T07:40:17.198Z,89.93
2023-02-23T07:42:44.639Z,88.25
2023-02-23T07:45:11.924Z,89.85
2023-02-23T07:47:39.596Z,84.60
2023-02-23T07:50:12.677Z,86.07
2023-02-23T07:52:43.177Z,90.38
2023-02-23T07:55:11.686Z,86.72
2023-02-23T07:57:39.624Z,89.57
2023-02-23T08:00:07.723Z,86.07
2023-02-23T08:02:40.650Z,82.13
2023-02-23T08:05:07.949Z,79.60
2023-02-23T08:07:34.980Z,87.82
2023-02-23T08:10:01.953Z,84.88
2023-02-23T08:12:31.566Z,88.00
2023-02-23T08:14:58.478Z,78.40
2023-02-23T08:17:25.778Z,82.70
2023-02-23T08:19:52.690Z,82.05
2023-02-23T08:22:20.113Z,72.90
2023-02-23T08:24:47.082Z,81.65
2023-02-23T08:27:14.105Z,78.20
2023-02-23T08:29:41.039Z,80.78
2023-02-23T08:32:08.032Z,87.35
2023-02-23T08:34:43.312Z,73.22
2023-02-23T08:37:11.148Z,77.50
2023-02-23T08:39:38.286Z,93.35
2023-02-23T08:42:05.370Z,87.20
2023-02-23T08:44:32.294Z,92.45
2023-02-23T08:47:00.603Z,85.95
2023-02-23T08:49:27.546Z,95.13
2023-02-23T08:51:54.459Z,93.40
2023-02-23T08:54:21.723Z,94.35
2023-02-23T08:56:48.745Z,81.82
2023-02-23T08:59:15.956Z,94.65
2023-02-23T09:01:43.194Z,86.63
2023-02-23T09:04:10.226Z,85.55
2023-02-23T09:06:37.921Z,88.13
2023-02-23T09:09:04.951Z,84.60
2023-02-23T09:11:31.910Z,92.55
2023-02-23T09:13:58.918Z,84.80
2023-02-23T09:16:25.905Z,90.57
2023-02-23T09:18:53.016Z,80.07
2023-02-23T09:21:25.023Z,81.75
2023-02-23T09:23:54.520Z,88.32
2023-02-23T09:26:22.958Z,94.47
2023-02-23T09:28:51.145Z,76.90
2023-02-23T09:31:22.839Z,95.30
2023-02-23T09:33:51.749Z,89.13
2023-02-23T09:36:23.686Z,86.28
2023-02-23T09:38:56.500Z,97.32
2023-02-23T09:41:26.336Z,101.53
2023-02-23T09:44:21.431Z,91.63
2023-02-23T09:47:06.716Z,85.72
2023-02-23T09:49:39.221Z,80.22
2023-02-23T09:52:19.324Z,81.00
2023-02-23T09:54:47.148Z,80.40
2023-02-23T09:57:24.174Z,79.93
2023-02-23T09:59:51.316Z,77.90
2023-02-23T10:02:32.432Z,81.07
2023-02-23T10:05:07.059Z,78.47
2023-02-23T10:08:07.705Z,72.53
2023-02-23T10:10:48.084Z,66.85
2023-02-23T10:13:45.108Z,69.90
2023-02-23T10:16:52.099Z,64.35
2023-02-23T10:19:22.827Z,65.63
2023-02-23T10:22:06.438Z,66.70
2023-02-23T10:24:41.621Z,66.65
2023-02-23T10:30:02.009Z,57.60
2023-02-23T10:32:49.394Z,61.70
2023-02-23T10:35:21.140Z,62.53
2023-02-23T10:37:50.374Z,62.83
2023-02-23T10:40:28.844Z,65.20
2023-02-23T10:42:58.406Z,60.58
2023-02-23T10:45:28.611Z,64.07
2023-02-23T10:48:05.586Z,55.65
2023-02-23T10:50:39.075Z,64.35
2023-02-23T10:53:24.224Z,56.35
2023-02-23T10:56:16.978Z,53.80
2023-02-23T10:58:52.572Z,51.72
2023-02-23T11:02:01.367Z,58.10
2023-02-23T11:04:34.949Z,52.90
2023-02-23T11:07:21.825Z,62.72
2023-02-23T11:09:51.279Z,57.45
2023-02-23T11:12:22.705Z,67.00
2023-02-23T11:14:53.032Z,61.17
2023-02-23T11:17:36.317Z,49.70
2023-02-23T11:20:18.233Z,57.13
2023-02-23T11:22:45.890Z,88.05
2023-02-23T11:25:30.261Z,75.93
2023-02-23T11:27:58.755Z,66.57
2023-02-23T11:30:37.899Z,69.93
2023-02-23T11:33:10.575Z,66.97
2023-02-23T11:35:38.604Z,64.97
2023-02-23T11:38:25.541Z,61.80
2023-02-23T11:41:18.604Z,57.33
2023-02-23T11:43:57.751Z,68.22
2023-02-23T11:46:27.297Z,63.38
2023-02-23T11:49:04.061Z,64.38
2023-02-23T11:51:38.581Z,66.60
2023-02-23T11:54:16.913Z,64.70
2023-02-23T11:56:52.119Z,64.88
2023-02-23T12:01:54.935Z,60.03
2023-02-23T12:04:39.102Z,64.40
2023-02-23T12:07:41.949Z,69.72
2023-02-23T12:10:51.716Z,63.80
2023-02-23T12:13:44.543Z,68.40
2023-02-23T12:16:51.011Z,64.57
2023-02-23T12:19:25.321Z,73.43
2023-02-23T12:22:05.289Z,68.97
2023-02-23T12:24:49.176Z,68.80
2023-02-23T12:28:05.085Z,65.55
2023-02-23T12:31:31.696Z,59.58
2023-02-23T12:34:38.238Z,57.10
2023-02-23T12:37:37.124Z,54.95
2023-02-23T12:40:30.062Z,45.85
2023-02-23T12:43:11.724Z,55.45
2023-02-23T12:46:07.423Z,55.55
2023-02-23T12:49:09.090Z,59.78
2023-02-23T12:51:41.136Z,59.60
2023-02-23T12:54:12.111Z,59.20
2023-02-23T12:57:30.931Z,54.13
2023-02-23T13:00:30.662Z,57.08
2023-02-23T13:03:44.253Z,53.50
2023-02-23T13:06:21.606Z,83.18
2023-02-23T13:09:40.611Z,57.22
2023-02-23T13:12:31.006Z,62.47
2023-02-23T13:15:21.461Z,48.08
2023-02-23T13:17:58.411Z,52.50
2023-02-23T13:20:37.483Z,55.15
2023-02-23T13:23:41.959Z,53.63
2023-02-23T13:26:46.865Z,63.30
2023-02-23T13:29:41.988Z,50.63
2023-02-23T13:32:19.075Z,53.80
2023-02-23T13:34:54.599Z,58.92
2023-02-23T13:37:28.525Z,62.70
2023-02-23T13:40:42.616Z,63.20
2023-02-23T13:43:29.061Z,62.00
2023-02-23T13:46:21.663Z,55.45
2023-02-23T13:49:06.187Z,62.00
2023-02-23T13:51:55.257Z,59.75
2023-02-23T13:54:33.551Z,57.40
2023-02-23T13:57:05.784Z,54.78
2023-02-23T13:59:45.393Z,64.40
2023-02-23T14:02:38.839Z,57.53
2023-02-23T14:05:26.206Z,53.40
2023-02-23T14:08:08.618Z,36.83
2023-02-23T14:10:45.319Z,31.90
2023-02-23T14:13:17.812Z,36.42
2023-02-23T14:16:15.749Z,34.60
2023-02-23T14:19:12.141Z,33.00
2023-02-23T14:21:58.971Z,32.65
2023-02-23T14:24:28.004Z,31.33
2023-02-23T14:27:03.553Z,38.53
2023-02-23T14:29:40.109Z,39.38
2023-02-23T14:32:12.798Z,43.08
2023-02-23T14:35:01.569Z,45.75
2023-02-23T14:37:41.277Z,38.28
2023-02-23T14:40:18.230Z,38.88
2023-02-23T14:42:52.302Z,37.70
2023-02-23T14:45:28.759Z,44.80
2023-02-23T14:48:05.494Z,46.55
2023-02-23T14:50:35.729Z,49.83
2023-02-23T14:53:06.819Z,42.83
2023-02-23T14:55:37.647Z,44.88
2023-02-23T14:58:39.584Z,41.05
2023-02-23T15:01:06.543Z,44.70
2023-02-23T15:03:33.579Z,42.65
2023-02-23T15:06:01.193Z,37.80
2023-02-23T15:08:31.053Z,40.83
2023-02-23T15:11:05.074Z,34.95
2023-02-23T15:13:52.262Z,32.58
2023-02-23T15:16:34.937Z,29.58
2023-02-23T15:19:05.207Z,24.30
2023-02-23T15:21:32.349Z,24.67
2023-02-23T15:24:11.602Z,23.17
2023-02-23T15:26:41.593Z,30.38
2023-02-23T15:29:13.529Z,26.73
2023-02-23T15:31:53.353Z,27.73
2023-02-23T15:34:27.823Z,27.65
2023-02-23T15:37:11.582Z,40.97
2023-02-23T15:39:58.581Z,31.85
2023-02-23T15:42:39.347Z,34.20
2023-02-23T15:45:22.262Z,29.48
2023-02-23T15:47:54.521Z,33.03
2023-02-23T15:50:41.027Z,32.13
2023-02-23T15:53:23.659Z,29.92
2023-02-23T15:55:51.608Z,30.17
2023-02-23T15:58:27.242Z,31.13
2023-02-23T16:01:08.834Z,26.48
2023-02-23T16:03:40.745Z,24.13
2023-02-23T16:06:32.634Z,24.95
2023-02-23T16:09:24.242Z,28.05
2023-02-23T16:12:07.895Z,29.48
2023-02-23T16:14:58.025Z,30.25
2023-02-23T16:17:27.076Z,29.10
2023-02-23T16:20:07.774Z,34.92
2023-02-23T16:22:36.826Z,31.15
2023-02-23T16:25:15.163Z,41.67
2023-02-23T16:27:44.499Z,34.88
2023-02-23T16:30:24.699Z,48.75
2023-02-23T16:33:11.253Z,38.40
2023-02-23T16:35:47.397Z,36.20
2023-02-23T16:38:39.056Z,42.20
2023-02-23T16:41:15.752Z,42.50
2023-02-23T16:43:42.822Z,42.08
2023-02-23T16:46:09.793Z,39.67
2023-02-23T16:48:36.845Z,36.85
2023-02-23T16:51:03.809Z,36.10
2023-02-23T16:53:30.737Z,31.83
2023-02-23T16:56:00.977Z,28.98
2023-02-23T17:02:02.744Z,32.20
2023-02-23T17:04:29.737Z,26.98
2023-02-23T17:06:58.028Z,26.15
2023-02-23T17:09:25.410Z,26.45
2023-02-23T17:11:52.396Z,30.70
2023-02-23T17:14:31.969Z,26.27
2023-02-23T17:17:01.382Z,28.02
2023-02-23T17:19:28.323Z,25.80
2023-02-23T17:21:55.263Z,26.55
2023-02-23T17:24:26.032Z,33.28
2023-02-23T17:26:55.280Z,24.27
2023-02-23T17:29:22.721Z,30.77
2023-02-23T17:31:50.675Z,28.17
2023-02-23T17:34:17.857Z,29.27
2023-02-23T17:36:44.872Z,26.98
2023-02-23T17:39:14.234Z,30.42
2023-02-23T17:41:41.526Z,29.98
2023-02-23T17:44:08.685Z,27.85
2023-02-23T17:46:35.971Z,32.38
2023-02-23T17:49:03.996Z,38.05
2023-02-23T17:51:31.035Z,37.72
2023-02-23T17:53:57.947Z,45.72
2023-02-23T17:56:25.388Z,45.67
2023-02-23T17:58:52.419Z,41.95
2023-02-23T18:01:19.974Z,37.15
2023-02-23T18:03:48.012Z,35.08
2023-02-23T18:06:16.851Z,46.28
2023-02-23T18:08:45.301Z,32.42
2023-02-23T18:11:12.947Z,39.42
2023-02-23T18:13:40.196Z,46.78
2023-02-23T18:16:10.410Z,37.35
2023-02-23T18:18:44.911Z,35.63
2023-02-23T18:21:16.134Z,32.22
2023-02-23T18:23:43.266Z,37.22
2023-02-23T18:26:17.660Z,34.85
2023-02-23T18:28:45.809Z,31.05
2023-02-23T18:31:19.978Z,33.25
2023-02-23T18:33:52.643Z,29.65
2023-02-23T18:36:27.861Z,33.90
2023-02-23T18:41:28.584Z,27.67
2023-02-23T18:43:55.447Z,30.83
2023-02-23T18:46:22.442Z,28.63
2023-02-23T18:48:51.486Z,32.72
2023-02-23T18:51:20.485Z,35.45
2023-02-23T18:56:25.137Z,34.20
2023-02-23T18:58:55.842Z,33.40
2023-02-23T19:01:27.711Z,31.58
2023-02-23T19:03:58.349Z,30.65
2023-02-23T19:06:26.293Z,33.85
2023-02-23T19:08:57.430Z,35.70
2023-02-23T19:11:29.520Z,34.30
2023-02-23T19:13:59.946Z,36.30
2023-02-23T19:16:30.008Z,46.17
2023-02-23T19:18:58.478Z,38.97
2023-02-23T19:21:25.932Z,51.95
2023-02-23T19:23:54.422Z,48.05
2023-02-23T19:26:21.535Z,52.08
2023-02-23T19:32:22.346Z,49.38
2023-02-23T19:34:49.445Z,41.55
2023-02-23T19:37:16.299Z,43.05
2023-02-23T19:39:44.958Z,45.15
2023-02-23T19:42:12.101Z,40.42
2023-02-23T19:44:39.024Z,38.88
2023-02-23T19:47:05.941Z,41.28
2023-02-23T19:49:32.939Z,49.20
2023-02-23T19:52:00.724Z,42.58
2023-02-23T19:54:28.799Z,46.08
2023-02-23T19:56:56.873Z,48.65
2023-02-23T19:59:24.587Z,52.17
2023-02-23T20:01:51.606Z,61.22
2023-02-23T20:04:18.623Z,60.50
2023-02-23T20:06:47.016Z,56.42
2023-02-23T20:09:15.091Z,64.45
2023-02-23T20:11:42.613Z,62.08
2023-02-23T20:14:12.332Z,70.07
2023-02-23T20:16:39.402Z,64.90
2023-02-23T20:19:07.588Z,62.38
2023-02-23T20:21:34.951Z,59.65
2023-02-23T20:24:02.320Z,62.50
2023-02-23T20:26:35.389Z,61.55
2023-02-23T20:29:10.687Z,54.30
2023-02-23T20:34:09.914Z,65.97
2023-02-23T20:36:37.070Z,72.97
2023-02-23T20:39:04.864Z,65.80
2023-02-23T20:41:32.060Z,64.03
2023-02-23T20:44:01.150Z,59.25
2023-02-23T20:48:59.305Z,65.15
2023-02-23T20:51:27.124Z,68.70
2023-02-23T20:53:54.039Z,68.22
2023-02-23T20:56:22.007Z,60.28
2023-02-23T20:58:49.233Z,68.15
2023-02-23T21:01:21.474Z,63.30
2023-02-23T21:07:01.657Z,64.03
2023-02-23T21:09:28.689Z,62.53
2023-02-23T21:11:55.594Z,79.93
2023-02-23T21:14:22.664Z,62.55
2023-02-23T21:16:49.586Z,64.47
2023-02-23T21:19:17.775Z,78.13
2023-02-23T21:21:57.791Z,68.40
2023-02-23T21:24:26.408Z,49.03
2023-02-23T21:26:53.260Z,45.13
2023-02-23T21:29:23.755Z,21.75
2023-02-23T21:31:51.276Z,15.73
2023-02-23T21:34:21.020Z,13.27
2023-02-23T21:36:49.890Z,12.63
2023-02-23T21:39:16.777Z,8.35
2023-02-23T21:41:43.621Z,15.32
2023-02-23T21:44:12.061Z,14.18
2023-02-23T21:46:40.353Z,12.75
2023-02-23T21:49:09.743Z,13.05
2023-02-23T21:51:37.011Z,16.23
2023-02-23T21:54:04.912Z,13.82
2023-02-23T21:56:32.754Z,17.33
2023-02-23T21:58:59.819Z,16.75
2023-02-23T22:01:30.270Z,17.77
2023-02-23T22:03:57.846Z,21.88
2023-02-23T22:06:29.130Z,15.15
2023-02-23T22:08:57.401Z,14.70
2023-02-23T22:11:27.560Z,21.40
2023-02-23T22:13:59.436Z,19.90
2023-02-23T22:16:33.008Z,19.30
2023-02-23T22:19:03.981Z,20.42
2023-02-23T22:21:40.143Z,38.30
2023-02-23T22:24:08.610Z,25.30
2023-02-23T22:26:39.813Z,26.45
2023-02-23T22:29:09.986Z,28.88
2023-02-23T22:31:38.032Z,22.63
2023-02-23T22:34:07.013Z,25.77
2023-02-23T22:36:34.424Z,32.42
2023-02-23T22:39:02.495Z,26.27
2023-02-23T22:41:29.519Z,22.50
2023-02-23T22:43:57.863Z,31.80
2023-02-23T22:46:25.904Z,27.60
2023-02-23T22:48:52.991Z,24.75
2023-02-23T22:51:20.673Z,28.35
2023-02-23T22:53:47.794Z,22.13
2023-02-23T22:56:14.651Z,34.63
2023-02-23T22:58:42.333Z,24.98
2023-02-23T23:01:12.112Z,21.08
2023-02-23T23:03:47.730Z,17.10
2023-02-23T23:06:22.010Z,22.02
2023-02-23T23:08:55.718Z,19.95
2023-02-23T23:11:26.843Z,16.65
2023-02-23T23:14:01.863Z,25.60
2023-02-23T23:16:35.778Z,15.73
2023-02-23T23:19:07.890Z,16.88
2023-02-23T23:21:36.012Z,22.48
2023-02-23T23:24:05.737Z,23.75
2023-02-23T23:26:40.584Z,24.52
2023-02-23T23:29:13.377Z,20.88
2023-02-23T23:31:45.441Z,22.88
2023-02-23T23:34:16.426Z,20.98
2023-02-23T23:36:49.008Z,17.00
2023-02-23T23:39:20.348Z,26.70
2023-02-23T23:41:49.201Z,15.18
2023-02-23T23:44:19.202Z,30.02
2023-02-23T23:46:46.645Z,20.90
2023-02-23T23:49:16.567Z,23.05
2023-02-23T23:51:48.670Z,17.10
2023-02-23T23:54:21.481Z,18.00
2023-02-23T23:56:50.061Z,23.92
2023-02-23T23:59:21.253Z,21.25
